sensor_id;sensor_type;location;lat;lon;timestamp;temperature;humidity
54938;DHT22;52756;52.826;6.214;2023-03-01T00:01:20;2.20;68.80
54938;DHT22;52756;52.826;6.214;2023-03-01T00:03:46;2.20;68.90
54938;DHT22;52756;52.826;6.214;2023-03-01T00:06:12;2.20;68.80
54938;DHT22;52756;52.826;6.214;2023-03-01T00:08:38;2.10;68.80
54938;DHT22;52756;52.826;6.214;2023-03-01T00:13:41;2.10;68.80
54938;DHT22;52756;52.826;6.214;2023-03-01T00:16:10;2.10;68.90
54938;DHT22;52756;52.826;6.214;2023-03-01T00:18:36;2.10;68.40
54938;DHT22;52756;52.826;6.214;2023-03-01T00:21:02;2.00;68.50
54938;DHT22;52756;52.826;6.214;2023-03-01T00:23:28;2.00;68.60
54938;DHT22;52756;52.826;6.214;2023-03-01T00:25:54;2.00;68.70
54938;DHT22;52756;52.826;6.214;2023-03-01T00:28:20;2.00;68.80
54938;DHT22;52756;52.826;6.214;2023-03-01T00:30:45;2.00;68.80
54938;DHT22;52756;52.826;6.214;2023-03-01T00:33:11;2.00;68.80
54938;DHT22;52756;52.826;6.214;2023-03-01T00:35:37;2.00;68.90
54938;DHT22;52756;52.826;6.214;2023-03-01T00:38:03;2.00;69.00
54938;DHT22;52756;52.826;6.214;2023-03-01T00:40:31;1.90;69.00
54938;DHT22;52756;52.826;6.214;2023-03-01T00:42:57;2.00;69.10
54938;DHT22;52756;52.826;6.214;2023-03-01T00:45:23;1.90;69.00
54938;DHT22;52756;52.826;6.214;2023-03-01T00:47:50;1.90;68.90
54938;DHT22;52756;52.826;6.214;2023-03-01T00:50:17;1.90;69.00
54938;DHT22;52756;52.826;6.214;2023-03-01T00:52:43;1.90;69.10
54938;DHT22;52756;52.826;6.214;2023-03-01T00:55:10;1.90;69.10
54938;DHT22;52756;52.826;6.214;2023-03-01T00:57:35;1.90;69.20
54938;DHT22;52756;52.826;6.214;2023-03-01T01:00:02;1.90;69.10
54938;DHT22;52756;52.826;6.214;2023-03-01T01:02:31;1.80;69.00
54938;DHT22;52756;52.826;6.214;2023-03-01T01:04:57;1.80;69.00
54938;DHT22;52756;52.826;6.214;2023-03-01T01:07:22;1.80;69.10
54938;DHT22;52756;52.826;6.214;2023-03-01T01:09:48;1.80;69.10
54938;DHT22;52756;52.826;6.214;2023-03-01T01:12:14;1.80;69.10
54938;DHT22;52756;52.826;6.214;2023-03-01T01:14:39;1.70;69.20
54938;DHT22;52756;52.826;6.214;2023-03-01T01:17:05;1.70;69.30
54938;DHT22;52756;52.826;6.214;2023-03-01T01:19:31;1.70;69.30
54938;DHT22;52756;52.826;6.214;2023-03-01T01:21:57;1.80;69.40
54938;DHT22;52756;52.826;6.214;2023-03-01T01:24:22;1.70;69.30
54938;DHT22;52756;52.826;6.214;2023-03-01T01:26:48;1.60;69.40
54938;DHT22;52756;52.826;6.214;2023-03-01T01:29:14;1.70;69.50
54938;DHT22;52756;52.826;6.214;2023-03-01T01:31:41;1.60;69.50
54938;DHT22;52756;52.826;6.214;2023-03-01T01:34:13;1.60;69.60
54938;DHT22;52756;52.826;6.214;2023-03-01T01:36:39;1.60;69.70
54938;DHT22;52756;52.826;6.214;2023-03-01T01:39:04;1.60;69.70
54938;DHT22;52756;52.826;6.214;2023-03-01T01:41:30;1.60;69.70
54938;DHT22;52756;52.826;6.214;2023-03-01T01:44:21;1.60;69.70
54938;DHT22;52756;52.826;6.214;2023-03-01T01:49:38;1.70;69.80
54938;DHT22;52756;52.826;6.214;2023-03-01T01:52:10;1.60;69.70
54938;DHT22;52756;52.826;6.214;2023-03-01T01:54:45;1.60;69.70
54938;DHT22;52756;52.826;6.214;2023-03-01T01:57:22;1.60;69.90
54938;DHT22;52756;52.826;6.214;2023-03-01T01:59:52;1.60;69.90
54938;DHT22;52756;52.826;6.214;2023-03-01T02:02:20;1.50;69.50
54938;DHT22;52756;52.826;6.214;2023-03-01T02:04:48;1.50;69.10
54938;DHT22;52756;52.826;6.214;2023-03-01T02:07:21;1.40;69.00
54938;DHT22;52756;52.826;6.214;2023-03-01T02:09:50;1.40;69.20
54938;DHT22;52756;52.826;6.214;2023-03-01T02:12:20;1.30;69.40
54938;DHT22;52756;52.826;6.214;2023-03-01T02:14:47;1.30;69.60
54938;DHT22;52756;52.826;6.214;2023-03-01T02:17:15;1.30;69.60
54938;DHT22;52756;52.826;6.214;2023-03-01T02:20:10;1.30;69.70
54938;DHT22;52756;52.826;6.214;2023-03-01T02:22:38;1.30;69.80
54938;DHT22;52756;52.826;6.214;2023-03-01T02:28:00;1.20;70.10
54938;DHT22;52756;52.826;6.214;2023-03-01T02:30:31;1.20;70.20
54938;DHT22;52756;52.826;6.214;2023-03-01T02:32:58;1.20;70.30
54938;DHT22;52756;52.826;6.214;2023-03-01T02:35:35;1.20;70.50
54938;DHT22;52756;52.826;6.214;2023-03-01T02:38:03;1.30;70.70
54938;DHT22;52756;52.826;6.214;2023-03-01T02:40:34;1.20;70.70
54938;DHT22;52756;52.826;6.214;2023-03-01T02:43:01;1.20;70.90
54938;DHT22;52756;52.826;6.214;2023-03-01T02:45:29;1.20;71.40
54938;DHT22;52756;52.826;6.214;2023-03-01T02:47:55;1.30;71.20
54938;DHT22;52756;52.826;6.214;2023-03-01T02:53:00;1.40;71.60
54938;DHT22;52756;52.826;6.214;2023-03-01T02:55:27;1.40;71.50
54938;DHT22;52756;52.826;6.214;2023-03-01T02:57:53;1.30;71.40
54938;DHT22;52756;52.826;6.214;2023-03-01T03:00:24;1.30;71.40
54938;DHT22;52756;52.826;6.214;2023-03-01T03:02:53;1.30;71.40
54938;DHT22;52756;52.826;6.214;2023-03-01T03:05:25;1.20;71.20
54938;DHT22;52756;52.826;6.214;2023-03-01T03:07:52;1.20;71.10
54938;DHT22;52756;52.826;6.214;2023-03-01T03:10:24;1.20;71.10
54938;DHT22;52756;52.826;6.214;2023-03-01T03:12:56;1.20;70.80
54938;DHT22;52756;52.826;6.214;2023-03-01T03:15:23;1.20;70.60
54938;DHT22;52756;52.826;6.214;2023-03-01T03:17:49;1.10;70.40
54938;DHT22;52756;52.826;6.214;2023-03-01T03:20:17;1.10;70.40
54938;DHT22;52756;52.826;6.214;2023-03-01T03:22:48;1.10;70.60
54938;DHT22;52756;52.826;6.214;2023-03-01T03:25:15;1.10;70.90
54938;DHT22;52756;52.826;6.214;2023-03-01T03:27:43;1.10;70.90
54938;DHT22;52756;52.826;6.214;2023-03-01T03:30:14;1.10;70.80
54938;DHT22;52756;52.826;6.214;2023-03-01T03:32:42;1.00;70.80
54938;DHT22;52756;52.826;6.214;2023-03-01T03:35:19;1.00;70.80
54938;DHT22;52756;52.826;6.214;2023-03-01T03:37:45;1.00;70.90
54938;DHT22;52756;52.826;6.214;2023-03-01T03:40:34;0.90;70.90
54938;DHT22;52756;52.826;6.214;2023-03-01T03:43:05;0.90;70.80
54938;DHT22;52756;52.826;6.214;2023-03-01T03:45:33;0.90;70.80
54938;DHT22;52756;52.826;6.214;2023-03-01T03:47:59;0.80;70.60
54938;DHT22;52756;52.826;6.214;2023-03-01T03:50:26;0.80;70.60
54938;DHT22;52756;52.826;6.214;2023-03-01T03:52:51;0.80;70.60
54938;DHT22;52756;52.826;6.214;2023-03-01T03:55:18;0.70;70.70
54938;DHT22;52756;52.826;6.214;2023-03-01T03:57:46;0.70;70.80
54938;DHT22;52756;52.826;6.214;2023-03-01T04:00:21;0.70;70.90
54938;DHT22;52756;52.826;6.214;2023-03-01T04:02:49;0.60;71.00
54938;DHT22;52756;52.826;6.214;2023-03-01T04:05:17;0.70;71.10
54938;DHT22;52756;52.826;6.214;2023-03-01T04:07:44;0.60;71.00
54938;DHT22;52756;52.826;6.214;2023-03-01T04:10:12;0.60;71.00
54938;DHT22;52756;52.826;6.214;2023-03-01T04:12:38;0.60;71.00
54938;DHT22;52756;52.826;6.214;2023-03-01T04:15:06;0.50;71.10
54938;DHT22;52756;52.826;6.214;2023-03-01T04:17:47;0.60;71.40
54938;DHT22;52756;52.826;6.214;2023-03-01T04:20:14;0.50;71.30
54938;DHT22;52756;52.826;6.214;2023-03-01T04:22:43;0.70;71.30
54938;DHT22;52756;52.826;6.214;2023-03-01T04:25:12;0.50;71.30
54938;DHT22;52756;52.826;6.214;2023-03-01T04:27:40;0.50;71.50
54938;DHT22;52756;52.826;6.214;2023-03-01T04:30:07;0.50;71.40
54938;DHT22;52756;52.826;6.214;2023-03-01T04:32:33;0.50;71.50
54938;DHT22;52756;52.826;6.214;2023-03-01T04:34:59;0.50;71.60
54938;DHT22;52756;52.826;6.214;2023-03-01T04:37:25;0.50;71.60
54938;DHT22;52756;52.826;6.214;2023-03-01T04:39:51;0.50;71.40
54938;DHT22;52756;52.826;6.214;2023-03-01T04:42:17;0.50;71.40
54938;DHT22;52756;52.826;6.214;2023-03-01T04:44:44;0.40;70.50
54938;DHT22;52756;52.826;6.214;2023-03-01T04:47:10;0.40;70.30
54938;DHT22;52756;52.826;6.214;2023-03-01T04:49:36;0.40;70.60
54938;DHT22;52756;52.826;6.214;2023-03-01T04:52:02;0.40;70.90
54938;DHT22;52756;52.826;6.214;2023-03-01T04:54:33;0.30;71.10
54938;DHT22;52756;52.826;6.214;2023-03-01T04:57:00;0.30;71.30
54938;DHT22;52756;52.826;6.214;2023-03-01T04:59:26;0.60;71.70
54938;DHT22;52756;52.826;6.214;2023-03-01T05:01:53;0.40;71.70
54938;DHT22;52756;52.826;6.214;2023-03-01T05:04:23;0.40;71.70
54938;DHT22;52756;52.826;6.214;2023-03-01T05:06:49;0.30;71.70
54938;DHT22;52756;52.826;6.214;2023-03-01T05:09:15;0.40;71.80
54938;DHT22;52756;52.826;6.214;2023-03-01T05:11:41;0.40;71.80
54938;DHT22;52756;52.826;6.214;2023-03-01T05:14:07;0.40;71.80
54938;DHT22;52756;52.826;6.214;2023-03-01T05:16:34;0.40;71.70
54938;DHT22;52756;52.826;6.214;2023-03-01T05:19:02;0.40;71.70
54938;DHT22;52756;52.826;6.214;2023-03-01T05:21:38;0.40;71.60
54938;DHT22;52756;52.826;6.214;2023-03-01T05:24:27;0.40;71.60
54938;DHT22;52756;52.826;6.214;2023-03-01T05:26:53;0.40;71.50
54938;DHT22;52756;52.826;6.214;2023-03-01T05:29:20;0.50;71.50
54938;DHT22;52756;52.826;6.214;2023-03-01T05:31:58;0.50;71.40
54938;DHT22;52756;52.826;6.214;2023-03-01T05:34:25;0.50;71.30
54938;DHT22;52756;52.826;6.214;2023-03-01T05:36:52;0.50;71.20
54938;DHT22;52756;52.826;6.214;2023-03-01T05:39:20;0.50;71.20
54938;DHT22;52756;52.826;6.214;2023-03-01T05:41:47;0.50;71.10
54938;DHT22;52756;52.826;6.214;2023-03-01T05:44:13;0.50;70.90
54938;DHT22;52756;52.826;6.214;2023-03-01T05:46:38;0.50;70.80
54938;DHT22;52756;52.826;6.214;2023-03-01T05:49:04;0.50;70.80
54938;DHT22;52756;52.826;6.214;2023-03-01T05:51:30;0.50;70.80
54938;DHT22;52756;52.826;6.214;2023-03-01T05:53:56;0.50;70.70
54938;DHT22;52756;52.826;6.214;2023-03-01T05:56:22;0.50;70.70
54938;DHT22;52756;52.826;6.214;2023-03-01T05:58:48;0.50;70.60
54938;DHT22;52756;52.826;6.214;2023-03-01T06:01:15;0.50;70.60
54938;DHT22;52756;52.826;6.214;2023-03-01T06:03:41;0.50;70.50
54938;DHT22;52756;52.826;6.214;2023-03-01T06:06:06;0.50;70.10
54938;DHT22;52756;52.826;6.214;2023-03-01T06:08:32;0.40;69.70
54938;DHT22;52756;52.826;6.214;2023-03-01T06:10:58;0.40;69.60
54938;DHT22;52756;52.826;6.214;2023-03-01T06:13:24;0.40;69.80
54938;DHT22;52756;52.826;6.214;2023-03-01T06:15:50;0.40;69.90
54938;DHT22;52756;52.826;6.214;2023-03-01T06:18:15;0.40;70.00
54938;DHT22;52756;52.826;6.214;2023-03-01T06:20:41;0.40;70.00
54938;DHT22;52756;52.826;6.214;2023-03-01T06:23:07;0.30;70.10
54938;DHT22;52756;52.826;6.214;2023-03-01T06:25:32;0.30;70.10
54938;DHT22;52756;52.826;6.214;2023-03-01T06:27:58;0.30;70.10
54938;DHT22;52756;52.826;6.214;2023-03-01T06:30:25;0.40;70.00
54938;DHT22;52756;52.826;6.214;2023-03-01T06:32:51;0.40;70.00
54938;DHT22;52756;52.826;6.214;2023-03-01T06:35:18;0.30;70.10
54938;DHT22;52756;52.826;6.214;2023-03-01T06:37:45;0.30;70.10
54938;DHT22;52756;52.826;6.214;2023-03-01T06:40:11;0.30;70.20
54938;DHT22;52756;52.826;6.214;2023-03-01T06:42:40;0.30;70.10
54938;DHT22;52756;52.826;6.214;2023-03-01T06:45:07;0.30;69.90
54938;DHT22;52756;52.826;6.214;2023-03-01T06:47:33;0.20;69.80
54938;DHT22;52756;52.826;6.214;2023-03-01T06:50:00;0.30;69.90
54938;DHT22;52756;52.826;6.214;2023-03-01T06:52:26;0.20;69.90
54938;DHT22;52756;52.826;6.214;2023-03-01T06:54:51;0.30;70.00
54938;DHT22;52756;52.826;6.214;2023-03-01T06:57:17;0.20;70.00
54938;DHT22;52756;52.826;6.214;2023-03-01T06:59:43;0.30;70.10
54938;DHT22;52756;52.826;6.214;2023-03-01T07:02:13;0.20;70.20
54938;DHT22;52756;52.826;6.214;2023-03-01T07:04:39;0.20;70.20
54938;DHT22;52756;52.826;6.214;2023-03-01T07:07:05;0.20;69.90
54938;DHT22;52756;52.826;6.214;2023-03-01T07:09:31;0.20;69.80
54938;DHT22;52756;52.826;6.214;2023-03-01T07:11:57;0.20;69.70
54938;DHT22;52756;52.826;6.214;2023-03-01T07:14:23;0.20;69.80
54938;DHT22;52756;52.826;6.214;2023-03-01T07:16:52;0.20;70.10
54938;DHT22;52756;52.826;6.214;2023-03-01T07:19:18;0.20;70.20
54938;DHT22;52756;52.826;6.214;2023-03-01T07:21:44;0.20;70.30
54938;DHT22;52756;52.826;6.214;2023-03-01T07:24:10;0.20;70.40
54938;DHT22;52756;52.826;6.214;2023-03-01T07:26:36;0.20;70.50
54938;DHT22;52756;52.826;6.214;2023-03-01T07:29:04;0.20;70.50
54938;DHT22;52756;52.826;6.214;2023-03-01T07:31:30;0.20;70.70
54938;DHT22;52756;52.826;6.214;2023-03-01T07:33:56;0.20;70.90
54938;DHT22;52756;52.826;6.214;2023-03-01T07:36:22;0.20;71.20
54938;DHT22;52756;52.826;6.214;2023-03-01T07:38:48;0.30;71.40
54938;DHT22;52756;52.826;6.214;2023-03-01T07:41:14;0.30;71.30
54938;DHT22;52756;52.826;6.214;2023-03-01T07:43:40;0.30;71.40
54938;DHT22;52756;52.826;6.214;2023-03-01T07:46:06;0.30;71.70
54938;DHT22;52756;52.826;6.214;2023-03-01T07:48:33;0.30;71.90
54938;DHT22;52756;52.826;6.214;2023-03-01T07:51:00;0.60;72.40
54938;DHT22;52756;52.826;6.214;2023-03-01T07:53:26;0.50;72.50
54938;DHT22;52756;52.826;6.214;2023-03-01T07:58:30;0.60;73.10
54938;DHT22;52756;52.826;6.214;2023-03-01T08:01:00;0.60;73.10
54938;DHT22;52756;52.826;6.214;2023-03-01T08:03:26;0.80;73.30
54938;DHT22;52756;52.826;6.214;2023-03-01T08:05:52;1.10;73.50
54938;DHT22;52756;52.826;6.214;2023-03-01T08:08:17;0.90;73.70
54938;DHT22;52756;52.826;6.214;2023-03-01T08:10:43;1.00;74.00
54938;DHT22;52756;52.826;6.214;2023-03-01T08:13:08;1.10;74.10
54938;DHT22;52756;52.826;6.214;2023-03-01T08:15:34;1.20;74.30
54938;DHT22;52756;52.826;6.214;2023-03-01T08:18:00;1.30;74.50
54938;DHT22;52756;52.826;6.214;2023-03-01T08:20:26;1.50;75.00
54938;DHT22;52756;52.826;6.214;2023-03-01T08:22:51;1.80;75.40
54938;DHT22;52756;52.826;6.214;2023-03-01T08:25:17;2.00;75.60
54938;DHT22;52756;52.826;6.214;2023-03-01T08:27:43;2.40;75.30
54938;DHT22;52756;52.826;6.214;2023-03-01T08:30:09;2.80;75.10
54938;DHT22;52756;52.826;6.214;2023-03-01T08:32:37;3.20;74.70
54938;DHT22;52756;52.826;6.214;2023-03-01T08:35:03;3.60;74.00
54938;DHT22;52756;52.826;6.214;2023-03-01T08:37:28;3.90;73.10
54938;DHT22;52756;52.826;6.214;2023-03-01T08:39:56;4.10;72.40
54938;DHT22;52756;52.826;6.214;2023-03-01T08:42:22;4.30;71.70
54938;DHT22;52756;52.826;6.214;2023-03-01T08:44:47;4.40;71.50
54938;DHT22;52756;52.826;6.214;2023-03-01T08:47:14;4.60;71.90
54938;DHT22;52756;52.826;6.214;2023-03-01T08:49:39;5.00;71.80
54938;DHT22;52756;52.826;6.214;2023-03-01T08:52:05;5.20;71.30
54938;DHT22;52756;52.826;6.214;2023-03-01T08:54:31;5.40;70.60
54938;DHT22;52756;52.826;6.214;2023-03-01T08:56:56;5.60;70.30
54938;DHT22;52756;52.826;6.214;2023-03-01T08:59:25;5.90;70.00
54938;DHT22;52756;52.826;6.214;2023-03-01T09:01:50;6.10;69.20
54938;DHT22;52756;52.826;6.214;2023-03-01T09:04:16;6.30;68.80
54938;DHT22;52756;52.826;6.214;2023-03-01T09:06:42;6.60;68.40
54938;DHT22;52756;52.826;6.214;2023-03-01T09:09:13;6.80;67.70
54938;DHT22;52756;52.826;6.214;2023-03-01T09:11:40;7.00;66.80
54938;DHT22;52756;52.826;6.214;2023-03-01T09:14:06;7.10;66.60
54938;DHT22;52756;52.826;6.214;2023-03-01T09:16:32;7.30;66.30
54938;DHT22;52756;52.826;6.214;2023-03-01T09:19:02;7.30;66.00
54938;DHT22;52756;52.826;6.214;2023-03-01T09:21:28;7.40;66.10
54938;DHT22;52756;52.826;6.214;2023-03-01T09:23:55;7.50;65.70
54938;DHT22;52756;52.826;6.214;2023-03-01T09:26:22;7.50;65.50
54938;DHT22;52756;52.826;6.214;2023-03-01T09:28:50;7.60;65.50
54938;DHT22;52756;52.826;6.214;2023-03-01T09:31:17;7.70;65.20
54938;DHT22;52756;52.826;6.214;2023-03-01T09:33:46;7.70;65.10
54938;DHT22;52756;52.826;6.214;2023-03-01T09:36:14;7.80;64.40
54938;DHT22;52756;52.826;6.214;2023-03-01T09:38:40;7.80;64.90
54938;DHT22;52756;52.826;6.214;2023-03-01T09:41:35;7.90;64.40
54938;DHT22;52756;52.826;6.214;2023-03-01T09:44:01;7.90;63.80
54938;DHT22;52756;52.826;6.214;2023-03-01T09:46:34;7.90;63.60
54938;DHT22;52756;52.826;6.214;2023-03-01T09:49:15;7.80;63.50
54938;DHT22;52756;52.826;6.214;2023-03-01T09:51:43;7.80;63.60
54938;DHT22;52756;52.826;6.214;2023-03-01T09:54:13;7.80;62.70
54938;DHT22;52756;52.826;6.214;2023-03-01T09:56:56;7.70;61.50
54938;DHT22;52756;52.826;6.214;2023-03-01T09:59:44;7.70;61.50
54938;DHT22;52756;52.826;6.214;2023-03-01T10:02:39;7.60;59.80
54938;DHT22;52756;52.826;6.214;2023-03-01T10:10:38;7.40;60.00
54938;DHT22;52756;52.826;6.214;2023-03-01T10:13:26;7.40;60.00
54938;DHT22;52756;52.826;6.214;2023-03-01T10:16:03;7.40;59.20
54938;DHT22;52756;52.826;6.214;2023-03-01T10:18:32;7.40;58.90
54938;DHT22;52756;52.826;6.214;2023-03-01T10:21:12;7.40;58.50
54938;DHT22;52756;52.826;6.214;2023-03-01T10:23:38;7.40;57.90
54938;DHT22;52756;52.826;6.214;2023-03-01T10:28:54;7.40;57.30
54938;DHT22;52756;52.826;6.214;2023-03-01T10:31:39;7.40;56.60
54938;DHT22;52756;52.826;6.214;2023-03-01T10:34:33;7.50;56.40
54938;DHT22;52756;52.826;6.214;2023-03-01T10:37:12;7.50;56.90
54938;DHT22;52756;52.826;6.214;2023-03-01T10:42:26;7.60;57.30
54938;DHT22;52756;52.826;6.214;2023-03-01T10:44:53;7.60;57.30
54938;DHT22;52756;52.826;6.214;2023-03-01T10:49:57;7.60;56.60
54938;DHT22;52756;52.826;6.214;2023-03-01T10:52:42;7.70;55.50
54938;DHT22;52756;52.826;6.214;2023-03-01T10:55:38;7.60;54.10
54938;DHT22;52756;52.826;6.214;2023-03-01T10:58:21;7.60;54.10
54938;DHT22;52756;52.826;6.214;2023-03-01T11:00:54;7.60;54.50
54938;DHT22;52756;52.826;6.214;2023-03-01T11:03:27;7.50;54.20
54938;DHT22;52756;52.826;6.214;2023-03-01T11:05:59;7.50;53.70
54938;DHT22;52756;52.826;6.214;2023-03-01T11:08:34;7.50;53.80
54938;DHT22;52756;52.826;6.214;2023-03-01T11:14:13;7.40;54.30
54938;DHT22;52756;52.826;6.214;2023-03-01T11:16:42;7.50;54.20
54938;DHT22;52756;52.826;6.214;2023-03-01T11:21:36;7.50;54.40
54938;DHT22;52756;52.826;6.214;2023-03-01T11:24:09;7.50;54.30
54938;DHT22;52756;52.826;6.214;2023-03-01T11:26:41;7.60;53.80
54938;DHT22;52756;52.826;6.214;2023-03-01T11:29:41;7.60;54.00
54938;DHT22;52756;52.826;6.214;2023-03-01T11:32:11;7.70;53.50
54938;DHT22;52756;52.826;6.214;2023-03-01T11:40:15;7.70;52.30
54938;DHT22;52756;52.826;6.214;2023-03-01T11:54:12;7.70;54.10
54938;DHT22;52756;52.826;6.214;2023-03-01T11:56:42;7.70;54.50
54938;DHT22;52756;52.826;6.214;2023-03-01T12:08:14;7.70;53.80
54938;DHT22;52756;52.826;6.214;2023-03-01T12:11:01;7.70;54.00
54938;DHT22;52756;52.826;6.214;2023-03-01T12:19:26;7.80;53.80
54938;DHT22;52756;52.826;6.214;2023-03-01T12:27:43;7.70;53.50
54938;DHT22;52756;52.826;6.214;2023-03-01T12:38:50;7.60;54.20
54938;DHT22;52756;52.826;6.214;2023-03-01T12:41:37;7.70;54.10
54938;DHT22;52756;52.826;6.214;2023-03-01T12:44:30;7.60;54.20
54938;DHT22;52756;52.826;6.214;2023-03-01T12:47:35;7.60;54.70
54938;DHT22;52756;52.826;6.214;2023-03-01T12:50:18;7.70;53.60
54938;DHT22;52756;52.826;6.214;2023-03-01T12:52:51;7.70;52.80
54938;DHT22;52756;52.826;6.214;2023-03-01T13:01:33;7.70;52.60
54938;DHT22;52756;52.826;6.214;2023-03-01T13:06:19;7.60;52.60
54938;DHT22;52756;52.826;6.214;2023-03-01T13:09:11;7.60;53.10
54938;DHT22;52756;52.826;6.214;2023-03-01T13:11:42;7.70;53.50
54938;DHT22;52756;52.826;6.214;2023-03-01T13:16:47;7.60;53.50
54938;DHT22;52756;52.826;6.214;2023-03-01T13:21:50;7.60;53.20
54938;DHT22;52756;52.826;6.214;2023-03-01T13:24:41;7.60;53.50
54938;DHT22;52756;52.826;6.214;2023-03-01T13:29:53;7.60;53.40
54938;DHT22;52756;52.826;6.214;2023-03-01T13:32:20;7.60;53.10
54938;DHT22;52756;52.826;6.214;2023-03-01T13:34:49;7.60;53.40
54938;DHT22;52756;52.826;6.214;2023-03-01T13:37:52;7.60;53.80
54938;DHT22;52756;52.826;6.214;2023-03-01T13:42:54;7.70;53.20
54938;DHT22;52756;52.826;6.214;2023-03-01T13:45:38;7.60;53.20
54938;DHT22;52756;52.826;6.214;2023-03-01T13:48:15;7.70;53.70
54938;DHT22;52756;52.826;6.214;2023-03-01T13:50:59;7.70;53.50
54938;DHT22;52756;52.826;6.214;2023-03-01T13:53:26;7.70;53.40
54938;DHT22;52756;52.826;6.214;2023-03-01T13:56:02;7.60;53.70
54938;DHT22;52756;52.826;6.214;2023-03-01T13:58:33;7.60;54.60
54938;DHT22;52756;52.826;6.214;2023-03-01T14:01:24;7.70;54.30
54938;DHT22;52756;52.826;6.214;2023-03-01T14:03:51;7.70;54.10
54938;DHT22;52756;52.826;6.214;2023-03-01T14:06:20;7.60;54.10
54938;DHT22;52756;52.826;6.214;2023-03-01T14:08:49;7.60;54.60
54938;DHT22;52756;52.826;6.214;2023-03-01T14:14:22;7.70;54.50
54938;DHT22;52756;52.826;6.214;2023-03-01T14:19:29;7.70;54.40
54938;DHT22;52756;52.826;6.214;2023-03-01T14:24:30;7.70;55.10
54938;DHT22;52756;52.826;6.214;2023-03-01T14:27:00;7.70;55.30
54938;DHT22;52756;52.826;6.214;2023-03-01T14:29:38;7.70;54.80
54938;DHT22;52756;52.826;6.214;2023-03-01T14:32:20;7.80;54.90
54938;DHT22;52756;52.826;6.214;2023-03-01T14:34:48;7.80;54.60
54938;DHT22;52756;52.826;6.214;2023-03-01T14:37:29;7.80;54.90
54938;DHT22;52756;52.826;6.214;2023-03-01T14:39:55;7.80;54.50
54938;DHT22;52756;52.826;6.214;2023-03-01T14:42:23;7.80;54.60
54938;DHT22;52756;52.826;6.214;2023-03-01T14:44:52;7.80;53.50
54938;DHT22;52756;52.826;6.214;2023-03-01T14:47:30;7.90;52.80
54938;DHT22;52756;52.826;6.214;2023-03-01T14:50:01;7.80;53.00
54938;DHT22;52756;52.826;6.214;2023-03-01T14:52:33;7.80;53.20
54938;DHT22;52756;52.826;6.214;2023-03-01T14:55:02;7.80;53.20
54938;DHT22;52756;52.826;6.214;2023-03-01T14:57:28;7.80;53.40
54938;DHT22;52756;52.826;6.214;2023-03-01T14:59:57;7.80;54.20
54938;DHT22;52756;52.826;6.214;2023-03-01T15:02:25;7.90;54.30
54938;DHT22;52756;52.826;6.214;2023-03-01T15:04:55;7.90;54.40
54938;DHT22;52756;52.826;6.214;2023-03-01T15:07:30;7.80;54.20
54938;DHT22;52756;52.826;6.214;2023-03-01T15:09:58;7.90;54.20
54938;DHT22;52756;52.826;6.214;2023-03-01T15:14:52;7.90;54.40
54938;DHT22;52756;52.826;6.214;2023-03-01T15:17:36;7.90;54.30
54938;DHT22;52756;52.826;6.214;2023-03-01T15:20:06;7.90;54.40
54938;DHT22;52756;52.826;6.214;2023-03-01T15:22:32;7.90;54.50
54938;DHT22;52756;52.826;6.214;2023-03-01T15:24:58;7.90;53.70
54938;DHT22;52756;52.826;6.214;2023-03-01T15:27:25;7.90;53.40
54938;DHT22;52756;52.826;6.214;2023-03-01T15:29:59;8.00;52.90
54938;DHT22;52756;52.826;6.214;2023-03-01T15:32:31;7.90;53.00
54938;DHT22;52756;52.826;6.214;2023-03-01T15:37:58;8.00;52.60
54938;DHT22;52756;52.826;6.214;2023-03-01T15:40:30;7.90;53.00
54938;DHT22;52756;52.826;6.214;2023-03-01T15:42:59;7.90;53.20
54938;DHT22;52756;52.826;6.214;2023-03-01T15:45:27;7.90;53.00
54938;DHT22;52756;52.826;6.214;2023-03-01T15:47:57;7.90;53.20
54938;DHT22;52756;52.826;6.214;2023-03-01T15:50:32;8.00;53.40
54938;DHT22;52756;52.826;6.214;2023-03-01T15:53:05;8.00;53.50
54938;DHT22;52756;52.826;6.214;2023-03-01T15:55:36;7.90;53.70
54938;DHT22;52756;52.826;6.214;2023-03-01T15:58:22;7.90;53.60
54938;DHT22;52756;52.826;6.214;2023-03-01T16:00:50;7.90;53.30
54938;DHT22;52756;52.826;6.214;2023-03-01T16:03:21;7.90;53.50
54938;DHT22;52756;52.826;6.214;2023-03-01T16:05:48;7.90;53.20
54938;DHT22;52756;52.826;6.214;2023-03-01T16:08:16;7.80;53.20
54938;DHT22;52756;52.826;6.214;2023-03-01T16:10:41;7.80;53.60
54938;DHT22;52756;52.826;6.214;2023-03-01T16:13:11;7.80;53.90
54938;DHT22;52756;52.826;6.214;2023-03-01T16:15:37;7.80;54.50
54938;DHT22;52756;52.826;6.214;2023-03-01T16:18:04;7.70;54.90
54938;DHT22;52756;52.826;6.214;2023-03-01T16:20:31;7.70;54.70
54938;DHT22;52756;52.826;6.214;2023-03-01T16:23:02;7.70;55.00
54938;DHT22;52756;52.826;6.214;2023-03-01T16:25:29;7.60;55.10
54938;DHT22;52756;52.826;6.214;2023-03-01T16:27:55;7.60;55.30
54938;DHT22;52756;52.826;6.214;2023-03-01T16:30:22;7.50;55.40
54938;DHT22;52756;52.826;6.214;2023-03-01T16:32:49;7.50;55.60
54938;DHT22;52756;52.826;6.214;2023-03-01T16:35:18;7.50;55.80
54938;DHT22;52756;52.826;6.214;2023-03-01T16:37:46;7.40;55.90
54938;DHT22;52756;52.826;6.214;2023-03-01T16:40:26;7.40;56.10
54938;DHT22;52756;52.826;6.214;2023-03-01T16:42:53;7.40;56.40
54938;DHT22;52756;52.826;6.214;2023-03-01T16:45:22;7.40;56.50
54938;DHT22;52756;52.826;6.214;2023-03-01T16:47:48;7.30;56.70
54938;DHT22;52756;52.826;6.214;2023-03-01T16:50:13;7.30;56.80
54938;DHT22;52756;52.826;6.214;2023-03-01T16:52:39;7.20;57.00
54938;DHT22;52756;52.826;6.214;2023-03-01T16:55:06;7.20;57.20
54938;DHT22;52756;52.826;6.214;2023-03-01T16:57:36;7.20;57.30
54938;DHT22;52756;52.826;6.214;2023-03-01T17:00:04;7.10;57.40
54938;DHT22;52756;52.826;6.214;2023-03-01T17:02:33;7.10;57.60
54938;DHT22;52756;52.826;6.214;2023-03-01T17:04:59;7.00;57.60
54938;DHT22;52756;52.826;6.214;2023-03-01T17:07:25;7.00;57.80
54938;DHT22;52756;52.826;6.214;2023-03-01T17:09:51;6.90;58.00
54938;DHT22;52756;52.826;6.214;2023-03-01T17:12:17;6.80;58.30
54938;DHT22;52756;52.826;6.214;2023-03-01T17:14:43;6.80;58.40
54938;DHT22;52756;52.826;6.214;2023-03-01T17:17:10;6.70;58.60
54938;DHT22;52756;52.826;6.214;2023-03-01T17:19:36;6.60;58.90
54938;DHT22;52756;52.826;6.214;2023-03-01T17:22:10;6.60;59.00
54938;DHT22;52756;52.826;6.214;2023-03-01T17:24:38;6.50;59.20
54938;DHT22;52756;52.826;6.214;2023-03-01T17:27:04;6.50;59.50
54938;DHT22;52756;52.826;6.214;2023-03-01T17:29:30;6.40;59.70
54938;DHT22;52756;52.826;6.214;2023-03-01T17:31:56;6.30;59.80
54938;DHT22;52756;52.826;6.214;2023-03-01T17:34:22;6.30;60.00
54938;DHT22;52756;52.826;6.214;2023-03-01T17:36:49;6.30;60.30
54938;DHT22;52756;52.826;6.214;2023-03-01T17:39:17;6.20;60.40
54938;DHT22;52756;52.826;6.214;2023-03-01T17:41:45;6.20;60.60
54938;DHT22;52756;52.826;6.214;2023-03-01T17:44:11;6.10;60.70
54938;DHT22;52756;52.826;6.214;2023-03-01T17:46:36;6.10;61.00
54938;DHT22;52756;52.826;6.214;2023-03-01T17:49:02;6.10;61.20
54938;DHT22;52756;52.826;6.214;2023-03-01T17:51:28;6.00;61.30